createdAt,value
2022-08-28T00:00:43.087Z,5.90
2022-08-28T00:03:12.386Z,6.40
2022-08-28T00:05:40.359Z,6.80
2022-08-28T00:08:09.571Z,8.50
2022-08-28T00:10:39.925Z,8.80
2022-08-28T00:13:09.293Z,6.90
2022-08-28T00:15:39.087Z,6.20
2022-08-28T00:18:06.954Z,6.10
2022-08-28T00:20:35.052Z,6.60
2022-08-28T00:23:02.478Z,5.90
2022-08-28T00:25:30.805Z,6.70
2022-08-28T00:28:00.836Z,5.80
2022-08-28T00:30:48.541Z,5.40
2022-08-28T00:33:21.286Z,6.10
2022-08-28T00:35:49.535Z,5.90
2022-08-28T00:38:19.948Z,6.00
2022-08-28T00:40:50.496Z,6.20
2022-08-28T00:43:36.773Z,5.90
2022-08-28T00:46:06.702Z,5.80
2022-08-28T00:48:33.558Z,6.00
2022-08-28T00:51:18.455Z,5.40
2022-08-28T00:53:45.345Z,5.50
2022-08-28T00:56:13.750Z,5.60
2022-08-28T00:58:43.719Z,6.30
2022-08-28T01:01:11.585Z,6.50
2022-08-28T01:03:38.492Z,6.70
2022-08-28T01:06:06.930Z,6.30
2022-08-28T01:08:36.187Z,5.80
2022-08-28T01:11:04.717Z,5.90
2022-08-28T01:13:33.165Z,6.00
2022-08-28T01:16:01.394Z,5.60
2022-08-28T01:18:28.997Z,6.10
2022-08-28T01:21:07.187Z,6.00
2022-08-28T01:23:53.417Z,5.90
2022-08-28T01:26:21.538Z,6.10
2022-08-28T01:28:48.620Z,5.70
2022-08-28T01:31:16.805Z,5.70
2022-08-28T01:33:44.845Z,5.20
2022-08-28T01:36:14.528Z,5.70
2022-08-28T01:38:43.597Z,6.40
2022-08-28T01:41:12.268Z,6.20
2022-08-28T01:43:40.273Z,6.30
2022-08-28T01:46:09.983Z,5.70
2022-08-28T01:48:39.993Z,6.00
2022-08-28T01:51:07.115Z,5.30
2022-08-28T01:53:34.888Z,5.20
2022-08-28T01:56:05.272Z,5.80
2022-08-28T01:58:36.025Z,5.30
2022-08-28T02:01:10.436Z,6.40
2022-08-28T02:03:37.565Z,5.90
2022-08-28T02:06:05.130Z,6.00
2022-08-28T02:08:32.297Z,5.30
2022-08-28T02:10:59.175Z,5.30
2022-08-28T02:13:26.162Z,5.40
2022-08-28T02:15:53.073Z,7.40
2022-08-28T02:18:20.596Z,6.40
2022-08-28T02:20:47.473Z,7.00
2022-08-28T02:23:14.580Z,6.30
2022-08-28T02:25:42.037Z,6.00
2022-08-28T02:28:09.321Z,5.60
2022-08-28T02:30:36.884Z,5.60
2022-08-28T02:33:03.829Z,5.80
2022-08-28T02:35:31.366Z,5.30
2022-08-28T02:38:00.567Z,5.70
2022-08-28T02:40:28.569Z,6.00
2022-08-28T02:42:55.406Z,6.00
2022-08-28T02:45:22.632Z,6.60
2022-08-28T02:47:52.731Z,6.10
2022-08-28T02:50:21.272Z,5.10
2022-08-28T02:52:48.325Z,5.50
2022-08-28T02:55:17.498Z,5.30
2022-08-28T02:57:45.590Z,5.50
2022-08-28T03:00:17.167Z,5.60
2022-08-28T03:02:45.757Z,6.40
2022-08-28T03:05:15.589Z,6.40
2022-08-28T03:07:42.874Z,6.30
2022-08-28T03:10:10.228Z,5.80
2022-08-28T03:12:38.327Z,6.40
2022-08-28T03:15:07.762Z,5.90
2022-08-28T03:17:36.999Z,5.40
2022-08-28T03:20:08.400Z,5.70
2022-08-28T03:22:51.026Z,6.80
2022-08-28T03:25:18.485Z,6.00
2022-08-28T03:27:45.432Z,6.80
2022-08-28T03:30:14.608Z,6.60
2022-08-28T03:32:41.400Z,6.70
2022-08-28T03:35:09.220Z,6.20
2022-08-28T03:37:36.505Z,6.40
2022-08-28T03:40:05.199Z,8.80
2022-08-28T03:42:32.319Z,6.40
2022-08-28T03:44:59.409Z,6.40
2022-08-28T03:47:28.437Z,7.40
2022-08-28T03:49:58.462Z,6.00
2022-08-28T03:52:25.797Z,6.20
2022-08-28T03:54:52.810Z,6.50
2022-08-28T03:57:22.503Z,6.20
2022-08-28T03:59:52.265Z,6.60
2022-08-28T04:02:20.688Z,6.60
2022-08-28T04:04:50.181Z,6.60
2022-08-28T04:07:18.881Z,7.10
2022-08-28T04:09:46.492Z,6.20
2022-08-28T04:12:13.580Z,6.10
2022-08-28T04:14:40.532Z,6.90
2022-08-28T04:17:08.421Z,7.20
2022-08-28T04:19:36.100Z,6.90
2022-08-28T04:22:03.402Z,7.50
2022-08-28T04:24:31.434Z,7.40
2022-08-28T04:26:58.328Z,7.50
2022-08-28T04:29:25.240Z,7.60
2022-08-28T04:31:52.401Z,7.80
2022-08-28T04:34:19.554Z,8.50
2022-08-28T04:36:46.865Z,8.40
2022-08-28T04:39:13.717Z,8.50
2022-08-28T04:41:40.933Z,8.70
2022-08-28T04:44:09.327Z,9.40
2022-08-28T04:46:36.992Z,8.10
2022-08-28T04:49:04.907Z,8.80
2022-08-28T04:51:32.586Z,8.20
2022-08-28T04:53:59.589Z,8.10
2022-08-28T04:56:26.944Z,7.40
2022-08-28T04:58:54.526Z,10.40
2022-08-28T05:01:25.515Z,11.00
2022-08-28T05:03:57.786Z,9.80
2022-08-28T05:06:27.298Z,13.40
2022-08-28T05:08:58.179Z,14.00
2022-08-28T05:11:33.408Z,13.30
2022-08-28T05:14:04.758Z,13.80
2022-08-28T05:16:32.648Z,15.20
2022-08-28T05:19:01.468Z,14.40
2022-08-28T05:21:28.585Z,13.90
2022-08-28T05:23:57.588Z,13.00
2022-08-28T05:26:27.041Z,14.20
2022-08-28T05:28:56.980Z,14.00
2022-08-28T05:31:25.243Z,13.10
2022-08-28T05:33:52.910Z,14.20
2022-08-28T05:36:22.871Z,14.30
2022-08-28T05:38:51.483Z,13.60
2022-08-28T05:41:24.485Z,12.90
2022-08-28T05:43:54.082Z,13.30
2022-08-28T05:46:22.432Z,12.90
2022-08-28T05:48:49.867Z,12.20
2022-08-28T05:51:20.543Z,13.00
2022-08-28T05:53:50.077Z,13.40
2022-08-28T05:56:20.490Z,12.50
2022-08-28T05:58:47.551Z,12.50
2022-08-28T06:01:17.475Z,12.90
2022-08-28T06:03:47.472Z,12.40
2022-08-28T06:06:14.364Z,10.50
2022-08-28T06:08:58.180Z,12.50
2022-08-28T06:11:30.538Z,16.60
2022-08-28T06:14:02.615Z,13.10
2022-08-28T06:16:31.867Z,18.40
2022-08-28T06:18:59.273Z,20.00
2022-08-28T06:21:26.262Z,20.10
2022-08-28T06:23:53.229Z,21.80
2022-08-28T06:26:20.084Z,16.60
2022-08-28T06:28:46.917Z,13.70
2022-08-28T06:31:24.637Z,12.20
2022-08-28T06:33:54.330Z,10.20
2022-08-28T06:36:22.162Z,9.70
2022-08-28T06:38:49.058Z,9.20
2022-08-28T06:41:16.248Z,9.70
2022-08-28T06:43:43.414Z,9.00
2022-08-28T06:46:10.394Z,9.60
2022-08-28T06:48:37.350Z,9.40
2022-08-28T06:51:09.518Z,9.60
2022-08-28T06:53:38.494Z,12.30
2022-08-28T06:56:13.704Z,12.60
2022-08-28T06:58:55.015Z,11.10
2022-08-28T07:01:27.055Z,11.80
2022-08-28T07:03:55.820Z,10.20
2022-08-28T07:06:24.028Z,8.90
2022-08-28T07:08:51.454Z,8.80
2022-08-28T07:11:21.072Z,6.80
2022-08-28T07:13:54.131Z,6.90
2022-08-28T07:16:25.013Z,6.70
2022-08-28T07:18:52.215Z,6.90
2022-08-28T07:21:20.713Z,6.80
2022-08-28T07:23:48.453Z,5.80
2022-08-28T07:26:19.386Z,6.00
2022-08-28T07:28:46.744Z,6.30
2022-08-28T07:31:18.600Z,6.30
2022-08-28T07:33:46.257Z,5.80
2022-08-28T07:36:29.341Z,6.10
2022-08-28T07:38:59.473Z,6.00
2022-08-28T07:41:30.375Z,5.60
2022-08-28T07:44:13.029Z,6.00
2022-08-28T07:46:40.589Z,5.40
2022-08-28T07:49:08.978Z,6.10
2022-08-28T07:51:36.817Z,5.70
2022-08-28T07:54:04.647Z,6.20
2022-08-28T07:56:32.325Z,6.10
2022-08-28T07:59:03.574Z,5.30
2022-08-28T08:01:31.550Z,5.50
2022-08-28T08:04:01.753Z,5.90
2022-08-28T08:06:34.250Z,5.90
2022-08-28T08:09:02.717Z,5.70
2022-08-28T08:11:32.228Z,5.90
2022-08-28T08:14:04.758Z,5.80
2022-08-28T08:16:38.758Z,5.90
2022-08-28T08:21:32.822Z,7.10
2022-08-28T08:23:59.658Z,6.00
2022-08-28T08:26:28.469Z,5.00
2022-08-28T08:28:56.372Z,5.50
2022-08-28T08:31:29.837Z,5.20
2022-08-28T08:34:01.502Z,5.00
2022-08-28T08:36:29.287Z,5.50
2022-08-28T08:38:59.366Z,5.00
2022-08-28T08:41:47.905Z,6.00
2022-08-28T08:44:33.516Z,5.80
2022-08-28T08:47:14.973Z,5.70
2022-08-28T08:49:53.167Z,5.80
2022-08-28T08:52:26.697Z,5.60
2022-08-28T08:55:10.053Z,6.50
2022-08-28T08:57:39.148Z,5.80
2022-08-28T09:00:15.199Z,6.70
2022-08-28T09:02:53.783Z,6.10
2022-08-28T09:05:24.277Z,5.70
2022-08-28T09:08:02.890Z,6.40
2022-08-28T09:10:39.707Z,7.40
2022-08-28T09:13:21.892Z,7.40
2022-08-28T09:15:51.007Z,6.60
2022-08-28T09:18:28.475Z,5.80
2022-08-28T09:20:58.285Z,5.80
2022-08-28T09:23:27.107Z,5.50
2022-08-28T09:26:01.849Z,5.70
2022-08-28T09:28:34.484Z,5.80
2022-08-28T09:31:04.418Z,6.60
2022-08-28T09:33:33.057Z,6.40
2022-08-28T09:36:22.889Z,5.70
2022-08-28T09:39:07.213Z,6.10
2022-08-28T09:42:06.345Z,5.60
2022-08-28T09:44:33.599Z,6.40
2022-08-28T09:47:00.722Z,5.70
2022-08-28T09:49:30.427Z,6.70
2022-08-28T09:51:59.674Z,6.00
2022-08-28T09:54:34.459Z,6.50
2022-08-28T09:57:03.519Z,7.00
2022-08-28T09:59:31.568Z,6.70
2022-08-28T10:02:21.028Z,7.60
2022-08-28T10:04:50.053Z,7.80
2022-08-28T10:07:37.553Z,7.40
2022-08-28T10:10:28.919Z,8.10
2022-08-28T10:13:14.899Z,8.10
2022-08-28T10:15:57.525Z,7.80
2022-08-28T10:18:24.978Z,7.00
2022-08-28T10:21:09.709Z,7.80
2022-08-28T10:23:52.664Z,8.10
2022-08-28T10:26:32.726Z,8.40
2022-08-28T10:29:08.048Z,7.60
2022-08-28T10:31:54.990Z,9.20
2022-08-28T10:34:43.540Z,10.30
2022-08-28T10:37:48.140Z,10.80
2022-08-28T10:40:23.146Z,11.10
2022-08-28T10:43:05.094Z,10.30
2022-08-28T10:45:34.362Z,10.50
2022-08-28T10:48:32.895Z,10.50
2022-08-28T10:51:04.808Z,9.60
2022-08-28T10:53:38.542Z,10.70
2022-08-28T10:56:23.294Z,10.00
2022-08-28T10:58:55.567Z,9.30
2022-08-28T11:01:31.243Z,9.50
2022-08-28T11:04:01.739Z,10.00
2022-08-28T11:06:33.896Z,9.20
2022-08-28T11:09:24.838Z,9.90
2022-08-28T11:11:56.499Z,9.40
2022-08-28T11:14:34.289Z,9.50
2022-08-28T11:17:06.634Z,9.60
2022-08-28T11:19:38.729Z,9.80
2022-08-28T11:22:11.731Z,8.70
2022-08-28T11:24:42.991Z,9.40
2022-08-28T11:27:31.292Z,8.90
2022-08-28T11:30:01.489Z,8.90
2022-08-28T11:32:43.578Z,8.50
2022-08-28T11:35:37.486Z,8.80
2022-08-28T11:38:04.932Z,8.60
2022-08-28T11:40:32.417Z,8.10
2022-08-28T11:43:16.309Z,7.60
2022-08-28T11:45:45.695Z,7.80
2022-08-28T11:48:38.007Z,8.30
2022-08-28T11:51:06.974Z,8.10
2022-08-28T11:54:05.054Z,8.70
2022-08-28T11:56:55.142Z,8.90
2022-08-28T11:59:38.965Z,8.70
2022-08-28T12:02:37.177Z,8.30
2022-08-28T12:05:07.595Z,9.70
2022-08-28T12:07:37.492Z,9.60
2022-08-28T12:10:24.731Z,10.30
2022-08-28T12:12:57.344Z,10.10
2022-08-28T12:15:28.203Z,10.40
2022-08-28T12:17:57.940Z,9.40
2022-08-28T12:20:32.453Z,11.50
2022-08-28T12:23:04.401Z,12.20
2022-08-28T12:25:36.426Z,13.10
2022-08-28T12:28:22.694Z,14.00
2022-08-28T12:31:09.150Z,14.20
2022-08-28T12:33:46.769Z,12.70
2022-08-28T12:36:17.263Z,13.10
2022-08-28T12:38:51.177Z,12.90
2022-08-28T12:41:18.870Z,11.90
2022-08-28T12:43:51.478Z,11.80
2022-08-28T12:46:30.219Z,11.80
2022-08-28T12:49:00.128Z,11.90
2022-08-28T12:51:31.679Z,11.50
2022-08-28T12:54:01.471Z,8.50
2022-08-28T12:56:34.163Z,6.60
2022-08-28T12:59:32.504Z,5.70
2022-08-28T13:02:12.162Z,5.60
2022-08-28T13:04:43.602Z,5.60
2022-08-28T13:07:23.805Z,5.80
2022-08-28T13:09:54.271Z,5.40
2022-08-28T13:12:31.978Z,4.70
2022-08-28T13:15:13.066Z,3.90
2022-08-28T13:17:45.987Z,3.40
2022-08-28T13:20:29.872Z,4.60
2022-08-28T13:25:31.538Z,3.90
2022-08-28T13:28:00.921Z,4.40
2022-08-28T13:30:31.084Z,4.20
2022-08-28T13:32:59.625Z,4.60
2022-08-28T13:35:27.054Z,5.10
2022-08-28T13:37:57.119Z,4.50
2022-08-28T13:40:56.366Z,4.80
2022-08-28T13:43:16.895Z,4.80
2022-08-28T13:45:46.113Z,5.60
2022-08-28T13:48:15.747Z,6.00
2022-08-28T13:50:47.439Z,5.90
2022-08-28T13:53:16.714Z,6.80
2022-08-28T13:55:43.742Z,6.30
2022-08-28T13:58:10.731Z,6.50
2022-08-28T14:00:43.396Z,5.80
2022-08-28T14:03:25.822Z,5.90
2022-08-28T14:05:53.212Z,5.30
2022-08-28T14:08:20.605Z,4.90
2022-08-28T14:10:48.235Z,5.10
2022-08-28T14:13:15.278Z,5.10
2022-08-28T14:15:42.090Z,5.60
2022-08-28T14:18:08.916Z,6.90
2022-08-28T14:20:38.255Z,6.10
2022-08-28T14:23:05.229Z,5.90
2022-08-28T14:25:37.026Z,6.30
2022-08-28T14:28:05.524Z,5.60
2022-08-28T14:30:32.597Z,4.50
2022-08-28T14:32:59.406Z,5.50
2022-08-28T14:35:26.965Z,5.50
2022-08-28T14:37:53.721Z,6.30
2022-08-28T14:40:20.720Z,4.60
2022-08-28T14:42:47.717Z,5.80
2022-08-28T14:45:14.635Z,5.40
2022-08-28T14:47:41.475Z,5.50
2022-08-28T14:50:08.939Z,4.90
2022-08-28T14:52:35.845Z,5.00
2022-08-28T14:55:02.684Z,5.10
2022-08-28T14:57:29.587Z,5.20
2022-08-28T14:59:56.370Z,5.90
2022-08-28T15:02:23.618Z,6.00
2022-08-28T15:04:50.462Z,6.70
2022-08-28T15:07:17.419Z,6.20
2022-08-28T15:09:44.266Z,5.80
2022-08-28T15:12:11.668Z,5.40
2022-08-28T15:14:38.658Z,5.50
2022-08-28T15:17:06.021Z,4.80
2022-08-28T15:19:32.925Z,7.20
2022-08-28T15:21:59.865Z,6.60
2022-08-28T15:24:31.056Z,5.60
2022-08-28T15:26:59.840Z,6.40
2022-08-28T15:29:29.994Z,6.80
2022-08-28T15:31:58.086Z,6.40
2022-08-28T15:34:28.436Z,7.40
2022-08-28T15:36:56.760Z,8.10
2022-08-28T15:39:41.671Z,5.50
2022-08-28T15:42:08.670Z,4.20
2022-08-28T15:44:35.578Z,4.20
2022-08-28T15:47:03.139Z,4.10
2022-08-28T15:49:32.260Z,3.20
2022-08-28T15:52:03.926Z,2.50
2022-08-28T15:54:31.967Z,3.00
2022-08-28T15:56:58.885Z,2.70
2022-08-28T15:59:25.924Z,3.50
2022-08-28T16:02:13.092Z,3.10
2022-08-28T16:04:40.114Z,3.20
2022-08-28T16:07:07.309Z,3.10
2022-08-28T16:09:34.314Z,3.50
2022-08-28T16:12:01.126Z,3.10
2022-08-28T16:14:28.386Z,3.00
2022-08-28T16:16:55.286Z,2.90
2022-08-28T16:19:22.425Z,3.10
2022-08-28T16:21:49.272Z,3.50
2022-08-28T16:24:16.120Z,3.60
2022-08-28T16:26:43.017Z,3.00
2022-08-28T16:29:09.877Z,2.80
2022-08-28T16:31:36.997Z,2.60
2022-08-28T16:34:04.646Z,2.50
2022-08-28T16:36:32.145Z,2.60
2022-08-28T16:39:03.754Z,2.60
2022-08-28T16:41:32.162Z,2.60
2022-08-28T16:43:59.264Z,2.70
2022-08-28T16:46:28.147Z,2.70
2022-08-28T16:48:56.073Z,3.00
2022-08-28T16:51:26.956Z,3.30
2022-08-28T16:53:54.931Z,2.70
2022-08-28T16:56:24.316Z,2.30
2022-08-28T16:58:52.988Z,2.40
2022-08-28T17:01:23.871Z,2.60
2022-08-28T17:03:53.422Z,2.40
2022-08-28T17:06:24.299Z,2.70
2022-08-28T17:08:56.478Z,2.90
2022-08-28T17:11:27.112Z,2.50
2022-08-28T17:13:55.437Z,2.90
2022-08-28T17:16:24.393Z,2.80
2022-08-28T17:18:52.628Z,3.00
2022-08-28T17:21:37.951Z,3.20
2022-08-28T17:24:05.043Z,3.30
2022-08-28T17:26:31.866Z,3.50
2022-08-28T17:28:58.659Z,3.20
2022-08-28T17:31:25.659Z,3.30
2022-08-28T17:33:52.618Z,4.10
2022-08-28T17:36:25.655Z,4.60
2022-08-28T17:39:02.179Z,5.50
2022-08-28T17:41:29.202Z,6.10
2022-08-28T17:43:56.138Z,6.00
2022-08-28T17:46:23.028Z,6.30
2022-08-28T17:48:55.848Z,6.90
2022-08-28T17:51:36.910Z,6.30
2022-08-28T17:54:11.264Z,5.40
2022-08-28T17:56:38.233Z,5.60
2022-08-28T17:59:05.450Z,6.00
2022-08-28T18:01:32.414Z,6.40
2022-08-28T18:03:59.338Z,6.60
2022-08-28T18:06:26.266Z,6.70
2022-08-28T18:08:53.403Z,6.00
2022-08-28T18:11:20.209Z,6.70
2022-08-28T18:13:47.591Z,7.10
2022-08-28T18:16:14.858Z,7.00
2022-08-28T18:18:42.179Z,7.80
2022-08-28T18:21:10.529Z,8.30
2022-08-28T18:23:39.714Z,8.00
2022-08-28T18:26:08.098Z,8.10
2022-08-28T18:28:36.751Z,8.50
2022-08-28T18:31:06.209Z,8.40
2022-08-28T18:33:34.663Z,8.50
2022-08-28T18:36:02.096Z,8.60
2022-08-28T18:38:31.550Z,10.30
2022-08-28T18:40:59.898Z,11.30
2022-08-28T18:43:27.388Z,11.80
2022-08-28T18:45:54.337Z,12.30
2022-08-28T18:48:21.712Z,11.90
2022-08-28T18:50:49.886Z,13.10
2022-08-28T18:53:18.992Z,13.50
2022-08-28T18:55:46.320Z,13.20
2022-08-28T18:58:15.352Z,14.90
2022-08-28T19:00:43.671Z,16.40
2022-08-28T19:03:11.003Z,16.90
2022-08-28T19:05:38.573Z,18.00
2022-08-28T19:08:06.619Z,18.80
2022-08-28T19:10:35.340Z,17.70
2022-08-28T19:13:03.972Z,18.00
2022-08-28T19:15:31.592Z,18.60
2022-08-28T19:18:00.586Z,16.70
2022-08-28T19:20:28.286Z,15.60
2022-08-28T19:22:56.753Z,16.80
2022-08-28T19:25:39.551Z,14.30
2022-08-28T19:28:06.498Z,15.20
2022-08-28T19:30:34.437Z,14.60
2022-08-28T19:33:04.032Z,14.40
2022-08-28T19:35:31.356Z,14.40
2022-08-28T19:37:58.513Z,14.10
2022-08-28T19:40:25.424Z,13.90
2022-08-28T19:42:52.395Z,14.60
2022-08-28T19:45:19.845Z,15.10
2022-08-28T19:47:47.196Z,13.80
2022-08-28T19:50:15.176Z,13.80
2022-08-28T19:52:43.536Z,13.70
2022-08-28T19:55:23.211Z,14.90
2022-08-28T19:57:50.178Z,14.60
2022-08-28T20:00:19.523Z,14.40
2022-08-28T20:02:48.297Z,15.00
2022-08-28T20:05:15.773Z,14.30
2022-08-28T20:07:42.635Z,17.60
2022-08-28T20:10:10.560Z,18.70
2022-08-28T20:12:38.613Z,22.00
2022-08-28T20:15:08.628Z,21.70
2022-08-28T20:17:43.876Z,22.20
2022-08-28T20:20:11.730Z,23.60
2022-08-28T20:22:39.154Z,25.20
2022-08-28T20:25:08.338Z,25.10
2022-08-28T20:27:36.094Z,29.80
2022-08-28T20:30:10.586Z,27.90
2022-08-28T20:32:40.071Z,24.50
2022-08-28T20:35:09.027Z,29.90
2022-08-28T20:37:44.941Z,28.60
2022-08-28T20:40:17.222Z,28.10
2022-08-28T20:42:44.419Z,25.90
2022-08-28T20:45:13.473Z,28.40
2022-08-28T20:47:40.739Z,24.00
2022-08-28T20:50:08.268Z,25.40
2022-08-28T20:52:35.129Z,27.10
2022-08-28T20:55:02.560Z,25.90
2022-08-28T20:57:29.422Z,25.90
2022-08-28T20:59:56.275Z,26.20
2022-08-28T21:02:26.060Z,28.00
2022-08-28T21:04:53.473Z,26.20
2022-08-28T21:07:23.334Z,22.90
2022-08-28T21:10:04.968Z,21.10
2022-08-28T21:15:03.863Z,15.50
2022-08-28T21:17:31.065Z,13.60
2022-08-28T21:20:00.590Z,13.00
2022-08-28T21:22:29.061Z,14.00
2022-08-28T21:24:55.914Z,11.10
2022-08-28T21:27:22.757Z,11.30
2022-08-28T21:29:49.544Z,11.20
2022-08-28T21:32:17.227Z,11.20
2022-08-28T21:34:44.044Z,10.10
2022-08-28T21:37:10.904Z,11.30
2022-08-28T21:39:37.702Z,13.20
2022-08-28T21:42:04.592Z,14.70
2022-08-28T21:44:31.475Z,14.70
2022-08-28T21:46:59.105Z,13.50
2022-08-28T21:49:26.249Z,14.00
2022-08-28T21:51:53.110Z,13.70
2022-08-28T21:54:19.953Z,12.80
2022-08-28T21:56:46.790Z,15.00
2022-08-28T21:59:17.396Z,14.10
2022-08-28T22:01:44.331Z,13.50
2022-08-28T22:04:11.895Z,15.30
2022-08-28T22:06:40.509Z,15.50
2022-08-28T22:09:09.071Z,15.10
2022-08-28T22:11:35.880Z,16.30
2022-08-28T22:14:02.680Z,16.40
2022-08-28T22:16:29.713Z,17.10
2022-08-28T22:18:56.706Z,17.90
2022-08-28T22:21:41.494Z,12.40
2022-08-28T22:24:09.254Z,14.30
2022-08-28T22:26:36.207Z,11.20
2022-08-28T22:29:03.101Z,13.60
2022-08-28T22:31:30.770Z,14.00
2022-08-28T22:33:57.833Z,13.30
2022-08-28T22:36:24.615Z,15.80
2022-08-28T22:38:57.137Z,14.80
2022-08-28T22:41:24.756Z,15.00
2022-08-28T22:43:54.094Z,13.30
2022-08-28T22:46:21.291Z,15.40
2022-08-28T22:48:49.606Z,18.00
2022-08-28T22:51:19.453Z,18.00
2022-08-28T22:53:48.088Z,16.90
2022-08-28T22:56:16.773Z,16.50
2022-08-28T22:58:44.147Z,15.90
2022-08-28T23:01:15.581Z,16.80
2022-08-28T23:03:42.611Z,17.20
2022-08-28T23:06:09.634Z,15.50
2022-08-28T23:08:36.657Z,17.20
2022-08-28T23:11:04.358Z,16.50
2022-08-28T23:13:33.024Z,14.20
2022-08-28T23:16:01.132Z,14.80
2022-08-28T23:18:28.558Z,14.80
2022-08-28T23:20:56.071Z,13.20
2022-08-28T23:23:23.487Z,14.50
2022-08-28T23:25:50.589Z,13.70
2022-08-28T23:28:18.700Z,11.90
2022-08-28T23:30:48.577Z,12.30
2022-08-28T23:33:23.912Z,11.40
2022-08-28T23:35:52.473Z,10.20
2022-08-28T23:38:19.449Z,9.30
2022-08-28T23:40:48.141Z,9.50
2022-08-28T23:43:16.103Z,8.90
2022-08-28T23:45:43.659Z,9.60
2022-08-28T23:48:11.049Z,9.30
2022-08-28T23:50:41.263Z,9.20
2022-08-28T23:53:09.311Z,8.70
2022-08-28T23:55:36.625Z,8.00
2022-08-28T23:58:04.552Z,7.70
